sensor_id;sensor_type;location;lat;lon;timestamp;pressure;altitude;pressure_sealevel;temperature;humidity
20062;BME280;10191;42.710;23.310;2022-09-12T00:01:56;94801.94;;;23.20;45.92
20062;BME280;10191;42.710;23.310;2022-09-12T00:04:22;94799.88;;;23.21;46.17
20062;BME280;10191;42.710;23.310;2022-09-12T00:06:47;94796.16;;;23.15;46.17
20062;BME280;10191;42.710;23.310;2022-09-12T00:09:13;94798.72;;;23.13;46.00
20062;BME280;10191;42.710;23.310;2022-09-12T00:11:39;94805.91;;;23.14;46.41
20062;BME280;10191;42.710;23.310;2022-09-12T00:14:06;94806.72;;;23.14;46.44
20062;BME280;10191;42.710;23.310;2022-09-12T00:16:32;94809.03;;;23.16;46.48
20062;BME280;10191;42.710;23.310;2022-09-12T00:18:58;94807.28;;;23.18;46.60
20062;BME280;10191;42.710;23.310;2022-09-12T00:21:23;94804.16;;;23.16;46.36
20062;BME280;10191;42.710;23.310;2022-09-12T00:23:49;94805.47;;;23.15;46.57
20062;BME280;10191;42.710;23.310;2022-09-12T00:26:14;94807.50;;;23.15;46.59
20062;BME280;10191;42.710;23.310;2022-09-12T00:28:41;94798.91;;;23.09;46.55
20062;BME280;10191;42.710;23.310;2022-09-12T00:31:08;94795.75;;;23.07;46.48
20062;BME280;10191;42.710;23.310;2022-09-12T00:33:34;94797.53;;;23.05;46.32
20062;BME280;10191;42.710;23.310;2022-09-12T00:36:02;94804.63;;;23.00;46.37
20062;BME280;10191;42.710;23.310;2022-09-12T00:38:28;94802.75;;;22.97;46.38
20062;BME280;10191;42.710;23.310;2022-09-12T00:40:53;94795.72;;;22.93;46.40
20062;BME280;10191;42.710;23.310;2022-09-12T00:43:35;94802.38;;;22.90;46.38
20062;BME280;10191;42.710;23.310;2022-09-12T00:46:03;94800.69;;;22.83;46.49
20062;BME280;10191;42.710;23.310;2022-09-12T00:48:32;94799.59;;;22.81;46.30
20062;BME280;10191;42.710;23.310;2022-09-12T00:50:59;94807.00;;;22.78;46.43
20062;BME280;10191;42.710;23.310;2022-09-12T00:53:24;94802.44;;;22.81;46.17
20062;BME280;10191;42.710;23.310;2022-09-12T00:55:50;94797.72;;;22.78;46.44
20062;BME280;10191;42.710;23.310;2022-09-12T00:58:27;94796.84;;;22.72;46.38
20062;BME280;10191;42.710;23.310;2022-09-12T01:00:54;94798.91;;;21.82;48.81
20062;BME280;10191;42.710;23.310;2022-09-12T01:03:22;94790.53;;;21.37;49.82
20062;BME280;10191;42.710;23.310;2022-09-12T01:06:37;94792.78;;;21.24;50.31
20062;BME280;10191;42.710;23.310;2022-09-12T01:08:43;94792.78;;;21.24;50.68
20062;BME280;10191;42.710;23.310;2022-09-12T01:11:11;94795.59;;;21.24;50.49
20062;BME280;10191;42.710;23.310;2022-09-12T01:13:37;94796.81;;;21.32;50.34
20062;BME280;10191;42.710;23.310;2022-09-12T01:16:04;94799.34;;;21.39;50.35
20062;BME280;10191;42.710;23.310;2022-09-12T01:21:56;94791.28;;;21.46;49.95
20062;BME280;10191;42.710;23.310;2022-09-12T01:24:57;94795.22;;;21.40;50.00
20062;BME280;10191;42.710;23.310;2022-09-12T01:30:46;94801.38;;;21.29;50.17
20062;BME280;10191;42.710;23.310;2022-09-12T01:39:02;94795.78;;;21.20;49.86
20062;BME280;10191;42.710;23.310;2022-09-12T01:41:42;94802.81;;;21.16;49.93
20062;BME280;10191;42.710;23.310;2022-09-12T01:52:26;94781.78;;;20.98;49.75
20062;BME280;10191;42.710;23.310;2022-09-12T01:54:59;94785.56;;;20.95;49.73
20062;BME280;10191;42.710;23.310;2022-09-12T01:57:37;94781.31;;;20.91;49.71
20062;BME280;10191;42.710;23.310;2022-09-12T02:00:09;94782.91;;;20.92;49.54
20062;BME280;10191;42.710;23.310;2022-09-12T02:05:26;94786.03;;;20.85;49.69
20062;BME280;10191;42.710;23.310;2022-09-12T02:08:04;94777.72;;;20.72;49.66
20062;BME280;10191;42.710;23.310;2022-09-12T02:10:37;94772.09;;;20.63;49.87
20062;BME280;10191;42.710;23.310;2022-09-12T02:13:12;94787.47;;;20.71;49.95
20062;BME280;10191;42.710;23.310;2022-09-12T02:15:44;94792.16;;;20.74;49.88
20062;BME280;10191;42.710;23.310;2022-09-12T02:18:14;94787.28;;;20.75;49.76
20062;BME280;10191;42.710;23.310;2022-09-12T02:20:44;94790.75;;;20.79;49.73
20062;BME280;10191;42.710;23.310;2022-09-12T02:23:20;94784.00;;;20.76;49.61
20062;BME280;10191;42.710;23.310;2022-09-12T02:25:48;94776.50;;;20.73;49.55
20062;BME280;10191;42.710;23.310;2022-09-12T02:28:40;94776.63;;;20.70;49.67
20062;BME280;10191;42.710;23.310;2022-09-12T02:31:27;94794.03;;;20.77;49.57
20062;BME280;10191;42.710;23.310;2022-09-12T02:39:15;94787.00;;;20.82;49.50
20062;BME280;10191;42.710;23.310;2022-09-12T02:41:47;94786.19;;;20.81;49.41
20062;BME280;10191;42.710;23.310;2022-09-12T02:44:14;94783.84;;;20.80;49.46
20062;BME280;10191;42.710;23.310;2022-09-12T02:46:43;94782.44;;;20.84;49.51
20062;BME280;10191;42.710;23.310;2022-09-12T02:49:11;94787.31;;;20.84;49.21
20062;BME280;10191;42.710;23.310;2022-09-12T02:51:37;94788.09;;;20.84;49.24
20062;BME280;10191;42.710;23.310;2022-09-12T02:54:04;94790.44;;;20.86;49.09
20062;BME280;10191;42.710;23.310;2022-09-12T02:56:31;94783.22;;;20.76;49.03
20062;BME280;10191;42.710;23.310;2022-09-12T02:59:09;94785.88;;;20.70;49.31
20062;BME280;10191;42.710;23.310;2022-09-12T03:07:58;94792.94;;;20.57;49.32
20062;BME280;10191;42.710;23.310;2022-09-12T03:13:20;94794.50;;;20.58;49.25
20062;BME280;10191;42.710;23.310;2022-09-12T03:22:00;94802.66;;;20.83;48.07
20062;BME280;10191;42.710;23.310;2022-09-12T03:24:18;94798.75;;;20.62;48.53
20062;BME280;10191;42.710;23.310;2022-09-12T03:29:14;94797.44;;;20.36;49.07
20062;BME280;10191;42.710;23.310;2022-09-12T03:31:54;94793.69;;;20.30;49.08
20062;BME280;10191;42.710;23.310;2022-09-12T03:34:22;94791.34;;;20.29;49.35
20062;BME280;10191;42.710;23.310;2022-09-12T03:36:48;94788.19;;;20.27;49.17
20062;BME280;10191;42.710;23.310;2022-09-12T03:39:14;94784.28;;;20.24;49.22
20062;BME280;10191;42.710;23.310;2022-09-12T03:41:40;94794.00;;;20.23;49.26
20062;BME280;10191;42.710;23.310;2022-09-12T03:44:05;94799.63;;;20.23;49.22
20062;BME280;10191;42.710;23.310;2022-09-12T03:46:31;94800.56;;;20.20;49.20
20062;BME280;10191;42.710;23.310;2022-09-12T03:48:56;94799.44;;;20.17;49.14
20062;BME280;10191;42.710;23.310;2022-09-12T03:51:21;94790.34;;;20.13;49.28
20062;BME280;10191;42.710;23.310;2022-09-12T03:53:47;94797.56;;;20.14;49.21
20062;BME280;10191;42.710;23.310;2022-09-12T03:56:13;94805.22;;;20.14;49.25
20062;BME280;10191;42.710;23.310;2022-09-12T03:58:38;94794.72;;;20.14;49.14
20062;BME280;10191;42.710;23.310;2022-09-12T04:01:15;94804.94;;;20.21;49.09
20062;BME280;10191;42.710;23.310;2022-09-12T04:03:42;94798.06;;;20.22;49.18
20062;BME280;10191;42.710;23.310;2022-09-12T04:06:10;94802.13;;;20.21;49.10
20062;BME280;10191;42.710;23.310;2022-09-12T04:08:36;94799.16;;;20.25;49.13
20062;BME280;10191;42.710;23.310;2022-09-12T04:11:08;94808.25;;;20.29;49.12
20062;BME280;10191;42.710;23.310;2022-09-12T04:13:37;94789.72;;;20.18;49.08
20062;BME280;10191;42.710;23.310;2022-09-12T04:16:03;94801.19;;;20.24;49.10
20062;BME280;10191;42.710;23.310;2022-09-12T04:18:29;94818.63;;;20.32;49.10
20062;BME280;10191;42.710;23.310;2022-09-12T04:20:55;94802.94;;;20.31;49.11
20062;BME280;10191;42.710;23.310;2022-09-12T04:23:21;94804.84;;;20.34;49.21
20062;BME280;10191;42.710;23.310;2022-09-12T04:25:57;94820.31;;;20.38;49.17
20062;BME280;10191;42.710;23.310;2022-09-12T04:28:24;94817.50;;;20.38;49.19
20062;BME280;10191;42.710;23.310;2022-09-12T04:30:49;94817.06;;;20.40;49.23
20062;BME280;10191;42.710;23.310;2022-09-12T04:33:15;94823.34;;;20.44;49.23
20062;BME280;10191;42.710;23.310;2022-09-12T04:35:41;94817.06;;;20.49;49.13
20062;BME280;10191;42.710;23.310;2022-09-12T04:38:07;94820.34;;;20.47;49.19
20062;BME280;10191;42.710;23.310;2022-09-12T04:40:33;94815.97;;;20.46;49.17
20062;BME280;10191;42.710;23.310;2022-09-12T04:42:59;94816.09;;;20.43;49.22
20062;BME280;10191;42.710;23.310;2022-09-12T04:45:25;94825.38;;;20.52;49.16
20062;BME280;10191;42.710;23.310;2022-09-12T04:47:51;94817.06;;;20.49;49.32
20062;BME280;10191;42.710;23.310;2022-09-12T04:50:17;94829.63;;;20.57;49.16
20062;BME280;10191;42.710;23.310;2022-09-12T04:52:42;94820.69;;;20.58;49.30
20062;BME280;10191;42.710;23.310;2022-09-12T04:55:08;94821.47;;;20.59;49.25
20062;BME280;10191;42.710;23.310;2022-09-12T04:57:34;94826.63;;;20.60;49.17
20062;BME280;10191;42.710;23.310;2022-09-12T05:00:00;94826.03;;;20.65;49.17
20062;BME280;10191;42.710;23.310;2022-09-12T05:02:25;94829.16;;;20.67;49.12
20062;BME280;10191;42.710;23.310;2022-09-12T05:04:51;94826.66;;;20.69;49.14
20062;BME280;10191;42.710;23.310;2022-09-12T05:07:17;94833.53;;;21.50;47.45
20062;BME280;10191;42.710;23.310;2022-09-12T05:09:43;94835.28;;;21.98;46.18
20062;BME280;10191;42.710;23.310;2022-09-12T05:12:08;94826.06;;;22.21;45.55
20062;BME280;10191;42.710;23.310;2022-09-12T05:14:33;94835.41;;;22.36;45.19
20062;BME280;10191;42.710;23.310;2022-09-12T05:16:59;94831.16;;;22.41;44.85
20062;BME280;10191;42.710;23.310;2022-09-12T05:19:25;94831.25;;;22.46;44.71
20062;BME280;10191;42.710;23.310;2022-09-12T05:21:51;94840.06;;;22.48;44.54
20062;BME280;10191;42.710;23.310;2022-09-12T05:24:16;94834.53;;;22.54;44.61
20062;BME280;10191;42.710;23.310;2022-09-12T05:26:41;94833.75;;;22.53;44.45
20062;BME280;10191;42.710;23.310;2022-09-12T05:29:07;94832.47;;;22.54;44.57
20062;BME280;10191;42.710;23.310;2022-09-12T05:31:32;94835.00;;;22.52;44.77
20062;BME280;10191;42.710;23.310;2022-09-12T05:33:58;94836.88;;;22.56;44.69
20062;BME280;10191;42.710;23.310;2022-09-12T05:36:24;94832.63;;;22.60;44.47
20062;BME280;10191;42.710;23.310;2022-09-12T05:38:50;94839.69;;;22.65;44.59
20062;BME280;10191;42.710;23.310;2022-09-12T05:41:16;94835.81;;;22.77;44.44
20062;BME280;10191;42.710;23.310;2022-09-12T05:43:42;94839.84;;;22.85;44.37
20062;BME280;10191;42.710;23.310;2022-09-12T05:46:11;94824.53;;;22.91;44.45
20062;BME280;10191;42.710;23.310;2022-09-12T05:48:38;94833.75;;;23.01;44.60
20062;BME280;10191;42.710;23.310;2022-09-12T05:51:07;94834.94;;;23.09;44.54
20062;BME280;10191;42.710;23.310;2022-09-12T05:53:33;94825.59;;;23.17;44.49
20062;BME280;10191;42.710;23.310;2022-09-12T05:56:06;94820.81;;;23.23;44.47
20062;BME280;10191;42.710;23.310;2022-09-12T05:58:33;94818.97;;;23.35;44.34
20062;BME280;10191;42.710;23.310;2022-09-12T06:01:05;94818.69;;;23.48;44.39
20062;BME280;10191;42.710;23.310;2022-09-12T06:03:32;94808.72;;;23.52;44.12
20062;BME280;10191;42.710;23.310;2022-09-12T06:06:00;94818.44;;;23.60;44.09
20062;BME280;10191;42.710;23.310;2022-09-12T06:08:25;94810.97;;;23.63;44.26
20062;BME280;10191;42.710;23.310;2022-09-12T06:10:50;94802.16;;;23.75;44.19
20062;BME280;10191;42.710;23.310;2022-09-12T06:13:16;94794.03;;;23.97;43.95
20062;BME280;10191;42.710;23.310;2022-09-12T06:15:41;94807.16;;;24.10;43.96
20062;BME280;10191;42.710;23.310;2022-09-12T06:18:07;94819.66;;;24.18;43.99
20062;BME280;10191;42.710;23.310;2022-09-12T06:20:34;94818.06;;;24.31;44.05
20062;BME280;10191;42.710;23.310;2022-09-12T06:23:00;94813.06;;;24.41;43.85
20062;BME280;10191;42.710;23.310;2022-09-12T06:25:25;94812.44;;;24.51;43.88
20062;BME280;10191;42.710;23.310;2022-09-12T06:27:50;94821.88;;;24.63;43.66
20062;BME280;10191;42.710;23.310;2022-09-12T06:30:16;94814.25;;;24.89;43.53
20062;BME280;10191;42.710;23.310;2022-09-12T06:32:41;94828.25;;;25.59;43.32
20062;BME280;10191;42.710;23.310;2022-09-12T06:35:07;94824.75;;;26.26;42.79
20062;BME280;10191;42.710;23.310;2022-09-12T06:37:32;94840.78;;;27.02;42.31
20062;BME280;10191;42.710;23.310;2022-09-12T06:39:58;94830.13;;;27.56;42.17
20062;BME280;10191;42.710;23.310;2022-09-12T06:42:24;94827.91;;;28.05;41.95
20062;BME280;10191;42.710;23.310;2022-09-12T06:44:49;94835.69;;;28.15;41.80
20062;BME280;10191;42.710;23.310;2022-09-12T06:47:14;94842.19;;;28.66;41.25
20062;BME280;10191;42.710;23.310;2022-09-12T06:49:40;94841.56;;;29.11;41.27
20062;BME280;10191;42.710;23.310;2022-09-12T06:52:05;94847.97;;;29.40;40.74
20062;BME280;10191;42.710;23.310;2022-09-12T06:54:31;94841.00;;;29.35;40.84
20062;BME280;10191;42.710;23.310;2022-09-12T06:56:56;94854.66;;;29.59;40.85
20062;BME280;10191;42.710;23.310;2022-09-12T06:59:21;94855.84;;;29.85;40.76
20062;BME280;10191;42.710;23.310;2022-09-12T07:01:47;94850.56;;;30.00;40.42
20062;BME280;10191;42.710;23.310;2022-09-12T07:04:12;94852.16;;;29.33;41.02
20062;BME280;10191;42.710;23.310;2022-09-12T07:06:38;94850.50;;;28.75;40.98
20062;BME280;10191;42.710;23.310;2022-09-12T07:09:05;94846.75;;;29.13;41.54
20062;BME280;10191;42.710;23.310;2022-09-12T07:11:31;94853.81;;;29.69;41.30
20062;BME280;10191;42.710;23.310;2022-09-12T07:13:58;94854.38;;;29.73;41.23
20062;BME280;10191;42.710;23.310;2022-09-12T07:16:24;94860.25;;;29.35;40.97
20062;BME280;10191;42.710;23.310;2022-09-12T07:19:07;94857.78;;;28.70;40.82
20062;BME280;10191;42.710;23.310;2022-09-12T07:21:33;94854.94;;;28.20;41.05
20062;BME280;10191;42.710;23.310;2022-09-12T07:24:04;94849.91;;;27.93;41.60
20062;BME280;10191;42.710;23.310;2022-09-12T07:26:29;94855.91;;;27.20;43.92
20062;BME280;10191;42.710;23.310;2022-09-12T07:28:56;94852.78;;;27.12;45.18
20062;BME280;10191;42.710;23.310;2022-09-12T07:31:23;94839.97;;;27.55;45.15
20062;BME280;10191;42.710;23.310;2022-09-12T07:33:50;94846.88;;;28.24;45.12
20062;BME280;10191;42.710;23.310;2022-09-12T07:36:20;94844.00;;;28.52;44.69
20062;BME280;10191;42.710;23.310;2022-09-12T07:38:47;94853.09;;;28.23;44.64
20062;BME280;10191;42.710;23.310;2022-09-12T07:41:17;94845.56;;;28.42;45.22
20062;BME280;10191;42.710;23.310;2022-09-12T07:43:43;94848.63;;;28.94;44.86
20062;BME280;10191;42.710;23.310;2022-09-12T07:46:09;94839.25;;;29.04;45.17
20062;BME280;10191;42.710;23.310;2022-09-12T07:48:36;94844.03;;;29.48;45.34
20062;BME280;10191;42.710;23.310;2022-09-12T07:51:04;94844.41;;;29.80;44.75
20062;BME280;10191;42.710;23.310;2022-09-12T07:53:34;94847.31;;;29.74;44.62
20062;BME280;10191;42.710;23.310;2022-09-12T07:56:00;94845.31;;;30.04;44.35
20062;BME280;10191;42.710;23.310;2022-09-12T07:58:27;94852.56;;;30.46;44.06
20062;BME280;10191;42.710;23.310;2022-09-12T08:00:53;94843.72;;;30.44;44.33
20062;BME280;10191;42.710;23.310;2022-09-12T08:03:18;94851.47;;;30.55;43.88
20062;BME280;10191;42.710;23.310;2022-09-12T08:05:43;94860.69;;;30.72;43.45
20062;BME280;10191;42.710;23.310;2022-09-12T08:08:09;94843.00;;;30.38;43.38
20062;BME280;10191;42.710;23.310;2022-09-12T08:10:35;94851.25;;;30.12;43.67
20062;BME280;10191;42.710;23.310;2022-09-12T08:13:01;94846.09;;;29.53;43.55
20062;BME280;10191;42.710;23.310;2022-09-12T08:15:28;94856.25;;;29.54;44.38
20062;BME280;10191;42.710;23.310;2022-09-12T08:17:53;94847.72;;;29.95;43.90
20062;BME280;10191;42.710;23.310;2022-09-12T08:20:19;94849.16;;;29.77;43.42
20062;BME280;10191;42.710;23.310;2022-09-12T08:22:44;94846.69;;;29.41;43.79
20062;BME280;10191;42.710;23.310;2022-09-12T08:25:10;94848.72;;;28.61;43.73
20062;BME280;10191;42.710;23.310;2022-09-12T08:27:36;94851.03;;;28.29;43.64
20062;BME280;10191;42.710;23.310;2022-09-12T08:30:02;94854.06;;;27.92;43.22
20062;BME280;10191;42.710;23.310;2022-09-12T08:32:29;94856.25;;;27.38;42.89
20062;BME280;10191;42.710;23.310;2022-09-12T08:34:54;94859.47;;;27.09;42.85
20062;BME280;10191;42.710;23.310;2022-09-12T08:37:20;94847.03;;;27.06;42.98
20062;BME280;10191;42.710;23.310;2022-09-12T08:39:45;94848.59;;;27.08;43.15
20062;BME280;10191;42.710;23.310;2022-09-12T08:42:22;94849.81;;;27.38;42.81
20062;BME280;10191;42.710;23.310;2022-09-12T08:45:06;94833.56;;;27.71;42.51
20062;BME280;10191;42.710;23.310;2022-09-12T08:47:39;94837.44;;;27.85;42.48
20062;BME280;10191;42.710;23.310;2022-09-12T08:50:12;94839.00;;;27.75;42.24
20062;BME280;10191;42.710;23.310;2022-09-12T08:55:28;94827.56;;;27.64;42.86
20062;BME280;10191;42.710;23.310;2022-09-12T08:57:55;94820.88;;;27.95;42.21
20062;BME280;10191;42.710;23.310;2022-09-12T09:00:21;94835.69;;;28.32;42.01
20062;BME280;10191;42.710;23.310;2022-09-12T09:03:12;94822.41;;;28.90;42.37
20062;BME280;10191;42.710;23.310;2022-09-12T09:06:01;94817.88;;;29.27;41.61
20062;BME280;10191;42.710;23.310;2022-09-12T09:17:09;94824.25;;;30.37;41.30
20062;BME280;10191;42.710;23.310;2022-09-12T09:19:41;94823.56;;;30.85;40.99
20062;BME280;10191;42.710;23.310;2022-09-12T09:22:15;94829.63;;;30.76;40.48
20062;BME280;10191;42.710;23.310;2022-09-12T09:24:48;94817.78;;;30.61;40.58
20062;BME280;10191;42.710;23.310;2022-09-12T09:27:30;94828.78;;;30.87;41.24
20062;BME280;10191;42.710;23.310;2022-09-12T09:29:57;94824.41;;;31.04;40.89
20062;BME280;10191;42.710;23.310;2022-09-12T09:32:50;94824.19;;;31.02;40.75
20062;BME280;10191;42.710;23.310;2022-09-12T09:43:49;94810.44;;;31.62;40.54
20062;BME280;10191;42.710;23.310;2022-09-12T09:46:14;94814.84;;;31.82;40.60
20062;BME280;10191;42.710;23.310;2022-09-12T09:48:43;94801.88;;;31.14;39.43
20062;BME280;10191;42.710;23.310;2022-09-12T09:51:10;94806.31;;;30.61;39.53
20062;BME280;10191;42.710;23.310;2022-09-12T09:53:46;94804.56;;;30.52;39.77
20062;BME280;10191;42.710;23.310;2022-09-12T09:56:33;94789.78;;;30.72;39.81
20062;BME280;10191;42.710;23.310;2022-09-12T09:59:08;94797.34;;;31.00;39.83
20062;BME280;10191;42.710;23.310;2022-09-12T10:01:34;94797.03;;;31.03;39.34
20062;BME280;10191;42.710;23.310;2022-09-12T10:03:59;94796.31;;;30.97;39.70
20062;BME280;10191;42.710;23.310;2022-09-12T10:06:29;94802.50;;;31.07;39.62
20062;BME280;10191;42.710;23.310;2022-09-12T10:09:27;94799.63;;;31.49;39.24
20062;BME280;10191;42.710;23.310;2022-09-12T10:11:54;94795.53;;;32.01;39.45
20062;BME280;10191;42.710;23.310;2022-09-12T10:14:32;94806.78;;;32.30;38.93
20062;BME280;10191;42.710;23.310;2022-09-12T10:17:00;94796.41;;;32.27;39.11
20062;BME280;10191;42.710;23.310;2022-09-12T10:19:34;94793.81;;;32.43;38.80
20062;BME280;10191;42.710;23.310;2022-09-12T10:22:01;94800.81;;;31.97;38.68
20062;BME280;10191;42.710;23.310;2022-09-12T10:24:34;94792.75;;;31.34;38.42
20062;BME280;10191;42.710;23.310;2022-09-12T10:27:15;94796.16;;;30.90;38.70
20062;BME280;10191;42.710;23.310;2022-09-12T10:29:51;94800.25;;;31.18;38.79
20062;BME280;10191;42.710;23.310;2022-09-12T10:32:28;94785.19;;;31.55;38.53
20062;BME280;10191;42.710;23.310;2022-09-12T10:35:01;94802.97;;;31.11;38.23
20062;BME280;10191;42.710;23.310;2022-09-12T10:37:31;94807.97;;;30.51;38.06
20062;BME280;10191;42.710;23.310;2022-09-12T10:39:58;94790.19;;;29.98;37.75
20062;BME280;10191;42.710;23.310;2022-09-12T10:43:00;94789.41;;;29.46;38.28
20062;BME280;10191;42.710;23.310;2022-09-12T10:45:35;94797.88;;;29.11;37.84
20062;BME280;10191;42.710;23.310;2022-09-12T10:48:24;94805.72;;;29.16;38.16
20062;BME280;10191;42.710;23.310;2022-09-12T10:50:50;94794.91;;;29.44;37.81
20062;BME280;10191;42.710;23.310;2022-09-12T10:53:21;94795.56;;;30.07;37.73
20062;BME280;10191;42.710;23.310;2022-09-12T10:56:02;94787.69;;;30.49;37.68
20062;BME280;10191;42.710;23.310;2022-09-12T11:01:01;94798.09;;;30.17;37.15
20062;BME280;10191;42.710;23.310;2022-09-12T11:03:47;94805.91;;;30.16;36.90
20062;BME280;10191;42.710;23.310;2022-09-12T11:06:22;94803.53;;;29.85;37.13
20062;BME280;10191;42.710;23.310;2022-09-12T11:08:59;94800.63;;;29.90;37.19
20062;BME280;10191;42.710;23.310;2022-09-12T11:12:11;94798.19;;;30.41;36.93
20062;BME280;10191;42.710;23.310;2022-09-12T11:17:46;94808.13;;;30.29;36.89
20062;BME280;10191;42.710;23.310;2022-09-12T11:34:07;94772.47;;;28.91;36.65
20062;BME280;10191;42.710;23.310;2022-09-12T11:39:23;94795.66;;;29.96;36.41
20062;BME280;10191;42.710;23.310;2022-09-12T11:41:56;94803.53;;;30.20;36.45
20062;BME280;10191;42.710;23.310;2022-09-12T11:44:26;94798.38;;;30.48;36.33
20062;BME280;10191;42.710;23.310;2022-09-12T11:46:53;94807.72;;;30.78;36.69
20062;BME280;10191;42.710;23.310;2022-09-12T11:49:27;94796.56;;;30.99;36.01
20062;BME280;10191;42.710;23.310;2022-09-12T12:02:27;94792.00;;;30.85;35.36
20062;BME280;10191;42.710;23.310;2022-09-12T12:07:58;94783.72;;;31.06;35.77
20062;BME280;10191;42.710;23.310;2022-09-12T12:10:37;94802.56;;;31.44;35.57
20062;BME280;10191;42.710;23.310;2022-09-12T12:16:15;94789.88;;;31.34;35.18
20062;BME280;10191;42.710;23.310;2022-09-12T12:18:42;94782.47;;;31.44;35.13
20062;BME280;10191;42.710;23.310;2022-09-12T12:29:12;94762.94;;;31.00;34.51
20062;BME280;10191;42.710;23.310;2022-09-12T12:34:38;94770.00;;;30.69;34.47
20062;BME280;10191;42.710;23.310;2022-09-12T12:39:57;94771.97;;;31.28;33.78
20062;BME280;10191;42.710;23.310;2022-09-12T12:44:57;94781.25;;;31.77;33.71
20062;BME280;10191;42.710;23.310;2022-09-12T12:47:26;94770.22;;;31.81;33.27
20062;BME280;10191;42.710;23.310;2022-09-12T12:50:06;94778.53;;;31.66;33.17
20062;BME280;10191;42.710;23.310;2022-09-12T12:52:57;94778.06;;;31.62;33.01
20062;BME280;10191;42.710;23.310;2022-09-12T12:58:04;94777.25;;;31.98;32.73
20062;BME280;10191;42.710;23.310;2022-09-12T13:00:38;94788.28;;;31.76;32.84
20062;BME280;10191;42.710;23.310;2022-09-12T13:05:45;94773.75;;;30.34;33.43
20062;BME280;10191;42.710;23.310;2022-09-12T13:10:51;94767.34;;;29.87;33.88
20062;BME280;10191;42.710;23.310;2022-09-12T13:13:26;94766.47;;;29.98;33.77
20062;BME280;10191;42.710;23.310;2022-09-12T13:15:54;94770.47;;;30.19;33.46
20062;BME280;10191;42.710;23.310;2022-09-12T13:18:42;94772.47;;;30.83;32.85
20062;BME280;10191;42.710;23.310;2022-09-12T13:21:13;94771.56;;;31.18;32.92
20062;BME280;10191;42.710;23.310;2022-09-12T13:23:39;94774.72;;;30.96;32.75
20062;BME280;10191;42.710;23.310;2022-09-12T13:26:24;94770.00;;;30.45;32.60
20062;BME280;10191;42.710;23.310;2022-09-12T13:29:08;94766.41;;;29.68;33.05
20062;BME280;10191;42.710;23.310;2022-09-12T13:31:33;94758.06;;;30.41;32.49
20062;BME280;10191;42.710;23.310;2022-09-12T13:34:00;94770.13;;;31.86;31.42
20062;BME280;10191;42.710;23.310;2022-09-12T13:39:45;94772.44;;;34.08;30.14
20062;BME280;10191;42.710;23.310;2022-09-12T13:45:24;94768.72;;;33.87;29.86
20062;BME280;10191;42.710;23.310;2022-09-12T13:47:53;94771.00;;;33.68;29.67
20062;BME280;10191;42.710;23.310;2022-09-12T13:50:25;94765.59;;;33.64;29.56
20062;BME280;10191;42.710;23.310;2022-09-12T13:53:12;94761.53;;;33.34;30.08
20062;BME280;10191;42.710;23.310;2022-09-12T13:55:42;94767.66;;;34.65;29.60
20062;BME280;10191;42.710;23.310;2022-09-12T14:00:45;94759.16;;;32.67;30.92
20062;BME280;10191;42.710;23.310;2022-09-12T14:03:32;94737.31;;;31.63;31.21
20062;BME280;10191;42.710;23.310;2022-09-12T14:06:16;94762.94;;;31.18;31.46
20062;BME280;10191;42.710;23.310;2022-09-12T14:08:44;94751.44;;;30.51;31.57
20062;BME280;10191;42.710;23.310;2022-09-12T14:11:17;94760.81;;;30.76;31.29
20062;BME280;10191;42.710;23.310;2022-09-12T14:13:45;94759.81;;;31.96;30.83
20062;BME280;10191;42.710;23.310;2022-09-12T14:16:10;94764.34;;;31.30;30.94
20062;BME280;10191;42.710;23.310;2022-09-12T14:18:37;94768.19;;;31.38;30.31
20062;BME280;10191;42.710;23.310;2022-09-12T14:21:31;94762.44;;;30.96;30.43
20062;BME280;10191;42.710;23.310;2022-09-12T14:23:58;94756.31;;;31.85;29.72
20062;BME280;10191;42.710;23.310;2022-09-12T14:26:24;94774.56;;;33.48;28.39
20062;BME280;10191;42.710;23.310;2022-09-12T14:28:52;94772.44;;;34.08;27.96
20062;BME280;10191;42.710;23.310;2022-09-12T14:31:29;94767.69;;;32.09;29.71
20062;BME280;10191;42.710;23.310;2022-09-12T14:36:34;94766.91;;;31.15;30.17
20062;BME280;10191;42.710;23.310;2022-09-12T14:39:04;94781.44;;;30.74;30.36
20062;BME280;10191;42.710;23.310;2022-09-12T14:41:36;94770.41;;;30.25;30.59
20062;BME280;10191;42.710;23.310;2022-09-12T14:44:06;94762.47;;;29.71;30.74
20062;BME280;10191;42.710;23.310;2022-09-12T14:46:37;94773.09;;;28.56;32.24
20062;BME280;10191;42.710;23.310;2022-09-12T14:54:42;94783.69;;;27.45;33.84
20062;BME280;10191;42.710;23.310;2022-09-12T14:59:52;94768.16;;;27.84;33.67
20062;BME280;10191;42.710;23.310;2022-09-12T15:04:46;94779.81;;;27.53;33.77
20062;BME280;10191;42.710;23.310;2022-09-12T15:07:14;94775.06;;;27.34;34.44
20062;BME280;10191;42.710;23.310;2022-09-12T15:09:40;94755.06;;;27.17;34.05
20062;BME280;10191;42.710;23.310;2022-09-12T15:12:08;94766.97;;;27.10;34.09
20062;BME280;10191;42.710;23.310;2022-09-12T15:14:34;94770.78;;;26.96;34.64
20062;BME280;10191;42.710;23.310;2022-09-12T15:17:00;94768.16;;;26.81;34.49
20062;BME280;10191;42.710;23.310;2022-09-12T15:19:25;94776.13;;;26.72;34.39
20062;BME280;10191;42.710;23.310;2022-09-12T15:21:51;94771.13;;;26.61;34.93
20062;BME280;10191;42.710;23.310;2022-09-12T15:24:16;94770.31;;;26.55;34.89
20062;BME280;10191;42.710;23.310;2022-09-12T15:26:42;94767.63;;;26.41;34.92
20062;BME280;10191;42.710;23.310;2022-09-12T15:29:07;94758.00;;;26.27;35.04
20062;BME280;10191;42.710;23.310;2022-09-12T15:31:33;94767.81;;;26.26;34.90
20062;BME280;10191;42.710;23.310;2022-09-12T15:33:59;94762.09;;;26.26;34.92
20062;BME280;10191;42.710;23.310;2022-09-12T15:36:26;94739.75;;;26.08;35.27